Time;durP1;ratioP1;P1;durP2;ratioP2;P2;SDS_P1;SDS_P2;PMS_P1;PMS_P2;Temp;Humidity;BMP_temperature;BMP_pressure;BME280_temperature;BME280_humidity;BME280_pressure;Samples;Min_cycle;Max_cycle;Signal;HPM_P1;HPM_P2
2024/01/16 00:00:03;;;;;;;14.63;4.70;;;0.60;99.90;;;;;;5042240;28;20324;-61
2024/01/16 00:02:31;;;;;;;25.10;4.80;;;0.60;99.90;;;;;;5042308;28;20692;-61
2024/01/16 00:04:59;;;;;;;11.80;4.10;;;0.50;99.90;;;;;;5043371;28;20228;-61
2024/01/16 00:07:28;;;;;;;12.17;4.27;;;0.40;99.90;;;;;;5044782;28;20233;-61
2024/01/16 00:09:56;;;;;;;7.27;3.80;;;0.40;99.90;;;;;;5044404;28;20216;-61
2024/01/16 00:12:24;;;;;;;9.23;3.90;;;0.40;99.90;;;;;;5043489;28;20706;-61
2024/01/16 00:14:52;;;;;;;9.90;4.17;;;0.30;99.90;;;;;;5043820;28;20229;-61
2024/01/16 00:17:22;;;;;;;8.57;4.40;;;0.30;99.90;;;;;;5044440;28;20237;-61
2024/01/16 00:19:50;;;;;;;9.23;4.40;;;0.20;99.90;;;;;;5047068;28;20374;-61
2024/01/16 00:22:19;;;;;;;10.27;3.73;;;0.20;99.90;;;;;;5044384;28;20248;-61
2024/01/16 00:24:47;;;;;;;6.37;4.10;;;0.10;99.90;;;;;;5044776;28;20224;-61
2024/01/16 00:27:15;;;;;;;6.90;4.20;;;0.10;99.90;;;;;;5041835;28;20271;-61
2024/01/16 00:29:43;;;;;;;9.33;3.73;;;0.10;99.90;;;;;;5041318;28;20224;-61
2024/01/16 00:32:15;;;;;;;13.53;3.70;;;0.10;99.90;;;;;;5045407;28;21611;-61
2024/01/16 00:34:45;;;;;;;11.73;3.97;;;0.00;99.90;;;;;;5043014;28;20452;-61
2024/01/16 00:37:14;;;;;;;12.73;4.00;;;0.00;99.90;;;;;;5045282;28;20228;-61
2024/01/16 00:39:42;;;;;;;12.43;4.33;;;0.00;99.90;;;;;;5043663;28;20219;-61
2024/01/16 00:42:10;;;;;;;12.37;4.07;;;0.00;99.90;;;;;;5045074;28;20307;-61
2024/01/16 00:44:38;;;;;;;12.70;4.43;;;0.00;99.90;;;;;;5040483;28;20213;-61
2024/01/16 00:47:07;;;;;;;15.00;4.20;;;-0.10;99.90;;;;;;5043524;28;20278;-61
2024/01/16 00:49:37;;;;;;;8.27;3.97;;;-0.10;99.90;;;;;;5045212;28;20195;-61
2024/01/16 00:52:07;;;;;;;9.73;4.33;;;-0.20;99.90;;;;;;5044647;28;20213;-61
2024/01/16 00:54:35;;;;;;;12.13;3.83;;;-0.10;99.90;;;;;;5044823;28;20217;-61
2024/01/16 00:57:04;;;;;;;14.90;4.73;;;-0.20;99.90;;;;;;5041535;28;20235;-61
2024/01/16 00:59:33;;;;;;;8.37;3.67;;;-0.10;99.90;;;;;;5047771;28;20225;-61
2024/01/16 01:02:03;;;;;;;15.30;4.40;;;-0.10;99.90;;;;;;5042768;28;20656;-61
2024/01/16 01:04:34;;;;;;;8.97;4.33;;;-0.20;99.90;;;;;;5047045;28;20286;-61
2024/01/16 01:07:02;;;;;;;8.10;3.70;;;-0.30;99.90;;;;;;5045183;28;20739;-61
2024/01/16 01:09:33;;;;;;;10.03;4.00;;;-0.30;99.90;;;;;;5043013;28;20298;-61
2024/01/16 01:12:02;;;;;;;9.67;4.27;;;-0.40;99.90;;;;;;5062429;28;20679;-61
2024/01/16 01:14:31;;;;;;;6.07;4.10;;;-0.40;99.90;;;;;;5050046;28;20299;-61
2024/01/16 01:16:59;;;;;;;9.77;4.10;;;-0.50;99.90;;;;;;5047951;28;20188;-61
2024/01/16 01:19:28;;;;;;;9.63;3.97;;;-0.40;99.90;;;;;;5047655;28;20220;-61
2024/01/16 01:21:56;;;;;;;8.57;3.60;;;-0.40;99.90;;;;;;5046035;28;20286;-61
2024/01/16 01:24:24;;;;;;;14.60;4.40;;;-0.40;99.90;;;;;;5048202;28;20240;-61
2024/01/16 01:26:54;;;;;;;9.67;4.20;;;-0.40;99.90;;;;;;5049472;28;20312;-61
2024/01/16 01:29:22;;;;;;;9.97;4.37;;;-0.50;99.90;;;;;;5045960;28;20224;-61
2024/01/16 01:31:50;;;;;;;11.33;4.43;;;-0.50;99.90;;;;;;5045000;28;20193;-61
2024/01/16 01:34:19;;;;;;;11.97;4.87;;;-0.50;99.90;;;;;;5047034;28;20236;-61
2024/01/16 01:36:47;;;;;;;10.53;4.23;;;-0.60;99.90;;;;;;5045469;28;20220;-61
2024/01/16 01:39:16;;;;;;;8.00;4.03;;;-0.60;99.90;;;;;;5048737;28;20225;-61
2024/01/16 01:41:44;;;;;;;12.57;4.20;;;-0.60;99.90;;;;;;5046817;28;20316;-61
2024/01/16 01:44:15;;;;;;;10.03;4.30;;;-0.60;99.90;;;;;;5044259;28;20209;-61
2024/01/16 01:46:46;;;;;;;11.00;4.17;;;-0.60;99.90;;;;;;5045768;28;20641;-61
2024/01/16 01:49:16;;;;;;;8.77;4.10;;;-0.60;99.90;;;;;;5057925;28;20311;-61
2024/01/16 01:51:45;;;;;;;15.57;4.60;;;-0.60;99.90;;;;;;5041474;28;20699;-61
2024/01/16 01:54:14;;;;;;;11.97;4.70;;;-0.50;99.90;;;;;;5044722;28;20266;-61
2024/01/16 01:56:44;;;;;;;8.93;4.33;;;-0.60;99.90;;;;;;5046169;28;20798;-61
2024/01/16 01:59:15;;;;;;;10.60;4.67;;;-0.50;99.90;;;;;;5044218;28;20185;-61
2024/01/16 02:01:43;;;;;;;7.07;3.90;;;-0.50;99.90;;;;;;5047372;28;20235;-61
2024/01/16 02:04:15;;;;;;;10.17;4.63;;;-0.50;99.90;;;;;;5047740;28;20227;-61
2024/01/16 02:06:44;;;;;;;10.00;4.50;;;-0.50;99.90;;;;;;5046152;28;20223;-61
2024/01/16 02:09:13;;;;;;;13.47;4.17;;;-0.50;99.90;;;;;;5043909;28;20213;-61
2024/01/16 02:11:41;;;;;;;7.67;4.00;;;-0.50;99.90;;;;;;5043043;28;20224;-61
2024/01/16 02:14:10;;;;;;;11.10;3.90;;;-0.60;99.90;;;;;;5045991;28;20189;-61
2024/01/16 02:16:41;;;;;;;6.33;3.83;;;-0.60;99.90;;;;;;5048799;28;20227;-61
2024/01/16 02:19:09;;;;;;;11.47;4.07;;;-0.60;99.90;;;;;;5045873;28;20227;-61
2024/01/16 02:21:40;;;;;;;5.70;3.93;;;-0.60;99.90;;;;;;5045498;28;20262;-61
2024/01/16 02:24:11;;;;;;;11.37;4.13;;;-0.70;99.90;;;;;;5058902;28;20278;-61
2024/01/16 02:26:40;;;;;;;8.13;3.80;;;-0.70;99.90;;;;;;5044692;28;20225;-61
2024/01/16 02:29:09;;;;;;;14.03;4.00;;;-0.80;99.90;;;;;;5043223;28;20204;-61
2024/01/16 02:31:37;;;;;;;8.37;4.03;;;-0.70;99.90;;;;;;5044616;28;20279;-61
2024/01/16 02:34:08;;;;;;;10.13;4.10;;;-0.80;99.90;;;;;;5044497;28;20275;-61
2024/01/16 02:36:37;;;;;;;11.03;4.37;;;-0.80;99.90;;;;;;5038509;28;20243;-62
2024/01/16 02:39:06;;;;;;;9.27;4.13;;;-0.80;99.90;;;;;;5046141;28;20225;-61
2024/01/16 02:41:36;;;;;;;8.80;4.23;;;-0.80;99.90;;;;;;5044164;28;20274;-61
2024/01/16 02:44:04;;;;;;;10.23;3.97;;;-0.80;99.90;;;;;;5045774;28;20215;-61
2024/01/16 02:46:34;;;;;;;11.00;4.03;;;-0.90;99.90;;;;;;5043643;28;20308;-62
2024/01/16 02:49:02;;;;;;;8.73;4.07;;;-0.90;99.90;;;;;;5045320;28;20221;-61
2024/01/16 02:51:31;;;;;;;5.70;3.83;;;-0.90;99.90;;;;;;5060426;28;20224;-61
2024/01/16 02:53:59;;;;;;;7.60;3.50;;;-0.80;99.90;;;;;;5043804;28;20245;-62
2024/01/16 02:56:27;;;;;;;7.43;4.03;;;-0.80;99.90;;;;;;5043990;28;20316;-62
2024/01/16 02:58:57;;;;;;;7.90;3.60;;;-0.80;99.90;;;;;;5044832;28;20202;-62
2024/01/16 03:01:25;;;;;;;9.97;3.77;;;-0.80;99.90;;;;;;5045359;28;20316;-62
2024/01/16 03:03:53;;;;;;;6.37;3.97;;;-0.80;99.90;;;;;;5045052;28;20252;-61
2024/01/16 03:06:25;;;;;;;5.67;3.50;;;-0.80;99.90;;;;;;5045284;28;20225;-62
2024/01/16 03:08:54;;;;;;;6.53;3.90;;;-0.70;99.90;;;;;;5047102;28;20217;-62
2024/01/16 03:11:22;;;;;;;7.93;3.70;;;-0.70;99.90;;;;;;5043079;28;20228;-62
2024/01/16 03:13:53;;;;;;;8.80;3.80;;;-0.70;99.90;;;;;;5042167;28;20722;-62
2024/01/16 03:16:22;;;;;;;12.03;3.90;;;-0.70;99.90;;;;;;5044434;28;20578;-62
2024/01/16 03:18:51;;;;;;;13.33;3.77;;;-0.60;99.90;;;;;;5044786;28;20219;-62
2024/01/16 03:21:19;;;;;;;11.27;4.10;;;-0.60;99.90;;;;;;5045669;28;20220;-62
2024/01/16 03:23:47;;;;;;;8.63;3.77;;;-0.60;99.90;;;;;;5043856;28;20236;-62
2024/01/16 03:26:16;;;;;;;5.67;3.77;;;-0.60;99.90;;;;;;5045151;28;20194;-62
2024/01/16 03:28:45;;;;;;;7.57;3.53;;;-0.60;99.90;;;;;;5040942;28;20219;-62
2024/01/16 03:31:14;;;;;;;7.73;3.40;;;-0.60;99.90;;;;;;5041768;28;20231;-62
2024/01/16 03:33:45;;;;;;;7.00;3.67;;;-0.60;99.90;;;;;;5042831;28;20717;-62
2024/01/16 03:36:13;;;;;;;10.13;3.73;;;-0.50;99.90;;;;;;5045338;28;20217;-62
2024/01/16 03:38:44;;;;;;;9.40;3.80;;;-0.60;99.90;;;;;;5043545;28;20240;-62
2024/01/16 03:41:12;;;;;;;9.20;3.90;;;-0.60;99.90;;;;;;5042799;28;20196;-63
2024/01/16 03:43:41;;;;;;;5.80;3.53;;;-0.50;99.90;;;;;;5045732;28;20188;-62
2024/01/16 03:46:11;;;;;;;5.67;3.40;;;-0.60;99.90;;;;;;5039405;28;20237;-62
2024/01/16 03:48:40;;;;;;;8.13;3.20;;;-0.60;99.90;;;;;;5042110;28;20220;-62
2024/01/16 03:51:10;;;;;;;8.37;3.97;;;-0.60;99.90;;;;;;5044600;28;20653;-62
2024/01/16 03:53:38;;;;;;;6.80;3.40;;;-0.60;99.90;;;;;;5043466;28;20215;-62
2024/01/16 03:56:10;;;;;;;12.63;3.63;;;-0.50;99.90;;;;;;5043255;28;20516;-61
2024/01/16 03:58:38;;;;;;;8.43;3.50;;;-0.60;99.90;;;;;;5045638;28;20199;-62
2024/01/16 04:01:09;;;;;;;4.53;3.37;;;-0.50;99.90;;;;;;5043959;28;20714;-62
2024/01/16 04:03:38;;;;;;;12.80;3.57;;;-0.50;99.90;;;;;;5044545;28;20601;-62
2024/01/16 04:06:18;;;;;;;10.03;3.87;;;-0.60;99.90;;;;;;5043834;28;20244;-62
2024/01/16 04:08:46;;;;;;;10.63;3.60;;;-0.60;99.90;;;;;;5040953;28;20709;-62
2024/01/16 04:11:15;;;;;;;4.97;3.37;;;-0.50;99.90;;;;;;5043162;28;20592;-62
2024/01/16 04:13:44;;;;;;;7.60;3.60;;;-0.50;99.90;;;;;;5045380;28;20204;-62
2024/01/16 04:16:14;;;;;;;6.37;3.47;;;-0.60;99.90;;;;;;5043744;28;20227;-62
2024/01/16 04:18:45;;;;;;;8.67;3.63;;;-0.60;99.90;;;;;;5038636;28;20867;-62
2024/01/16 04:21:14;;;;;;;8.00;3.80;;;-0.60;99.90;;;;;;5040802;28;20590;-62
2024/01/16 04:23:48;;;;;;;5.10;3.30;;;-0.60;99.90;;;;;;5042673;28;20328;-62
2024/01/16 04:26:17;;;;;;;4.73;3.33;;;-0.60;99.90;;;;;;5043171;28;20216;-62
2024/01/16 04:28:45;;;;;;;5.03;3.37;;;-0.70;99.90;;;;;;5045115;28;20220;-62
2024/01/16 04:31:13;;;;;;;10.07;3.77;;;-0.70;99.90;;;;;;5042424;28;20220;-62
2024/01/16 04:33:42;;;;;;;8.50;3.60;;;-0.70;99.90;;;;;;5041616;28;20225;-62
2024/01/16 04:36:10;;;;;;;10.30;4.00;;;-0.70;99.90;;;;;;5041194;28;20216;-62
2024/01/16 04:38:39;;;;;;;5.30;3.47;;;-0.80;99.90;;;;;;5047592;28;20312;-62
2024/01/16 04:41:08;;;;;;;8.20;3.30;;;-0.80;99.90;;;;;;5048498;28;20196;-62
2024/01/16 04:43:36;;;;;;;10.53;3.67;;;-0.80;99.90;;;;;;5029950;28;20244;-62
2024/01/16 04:46:05;;;;;;;7.37;3.63;;;-0.80;99.90;;;;;;5044580;28;20320;-61
2024/01/16 04:48:33;;;;;;;7.80;3.37;;;-0.80;99.90;;;;;;5047019;28;20308;-61
2024/01/16 04:51:03;;;;;;;5.83;3.67;;;-0.80;99.90;;;;;;5050937;28;20228;-62
2024/01/16 04:53:32;;;;;;;4.90;3.50;;;-0.80;99.90;;;;;;5043633;28;20649;-62
2024/01/16 04:56:00;;;;;;;5.27;3.60;;;-0.80;99.90;;;;;;5046215;28;20284;-61
2024/01/16 04:58:30;;;;;;;5.33;3.90;;;-0.80;99.90;;;;;;5046048;28;20213;-62
2024/01/16 05:00:58;;;;;;;3.70;3.37;;;-0.80;99.90;;;;;;5044302;28;20216;-61
2024/01/16 05:03:26;;;;;;;7.30;3.60;;;-0.80;99.90;;;;;;5046801;28;20229;-61
2024/01/16 05:05:55;;;;;;;6.07;3.63;;;-0.80;99.90;;;;;;5045299;28;20279;-61
2024/01/16 05:08:24;;;;;;;8.30;3.10;;;-0.80;99.90;;;;;;5039000;28;20224;-62
2024/01/16 05:10:52;;;;;;;9.00;3.60;;;-0.90;99.90;;;;;;5048426;28;20188;-62
2024/01/16 05:13:22;;;;;;;6.13;3.70;;;-0.90;99.90;;;;;;5045943;28;20695;-61
2024/01/16 05:15:52;;;;;;;8.20;3.67;;;-0.90;99.90;;;;;;5047748;28;20225;-61
2024/01/16 05:18:21;;;;;;;6.90;3.40;;;-0.90;99.90;;;;;;5049244;28;20230;-61
2024/01/16 05:20:49;;;;;;;4.07;3.20;;;-0.90;99.90;;;;;;5047653;28;20228;-62
2024/01/16 05:23:18;;;;;;;8.47;3.20;;;-0.90;99.90;;;;;;5045734;28;20199;-61
2024/01/16 05:25:46;;;;;;;5.60;3.70;;;-1.00;99.90;;;;;;5044880;28;20587;-61
2024/01/16 05:28:14;;;;;;;7.50;3.57;;;-1.00;99.90;;;;;;5044565;28;20698;-62
2024/01/16 05:30:43;;;;;;;5.43;3.67;;;-1.10;99.90;;;;;;5045982;28;20716;-61
2024/01/16 05:33:12;;;;;;;9.87;3.87;;;-1.00;99.90;;;;;;5043643;28;20706;-61
2024/01/16 05:35:41;;;;;;;7.70;3.30;;;-1.10;99.90;;;;;;5044394;28;20224;-61
2024/01/16 05:38:12;;;;;;;14.87;3.70;;;-1.10;99.90;;;;;;5042290;28;20213;-61
2024/01/16 05:40:41;;;;;;;7.00;3.80;;;-1.10;99.90;;;;;;5047798;28;20570;-61
2024/01/16 05:43:09;;;;;;;6.80;3.87;;;-1.20;99.90;;;;;;5045048;28;20298;-61
2024/01/16 05:45:38;;;;;;;6.73;3.90;;;-1.20;99.90;;;;;;5046311;28;20251;-61
2024/01/16 05:48:08;;;;;;;6.37;3.40;;;-1.20;99.90;;;;;;5038937;28;20222;-61
2024/01/16 05:50:38;;;;;;;5.83;3.50;;;-1.20;99.90;;;;;;5044224;28;20227;-61
2024/01/16 05:53:07;;;;;;;8.63;3.33;;;-1.10;99.90;;;;;;5040851;28;20292;-61
2024/01/16 05:55:36;;;;;;;5.57;3.40;;;-1.10;99.90;;;;;;5047403;28;20197;-61
2024/01/16 05:58:05;;;;;;;10.67;3.80;;;-1.10;99.90;;;;;;5040168;28;20304;-61
2024/01/16 06:00:34;;;;;;;8.17;3.53;;;-1.10;99.90;;;;;;5045024;28;20224;-61
2024/01/16 06:03:03;;;;;;;5.87;3.33;;;-1.00;99.90;;;;;;5045859;28;20236;-61
2024/01/16 06:05:31;;;;;;;5.20;3.60;;;-1.00;99.90;;;;;;5047599;28;20217;-61
2024/01/16 06:08:01;;;;;;;7.23;3.70;;;-0.90;99.90;;;;;;5043871;28;20196;-61
2024/01/16 06:10:29;;;;;;;6.40;3.57;;;-0.90;99.90;;;;;;5044914;28;20758;-61
2024/01/16 06:12:57;;;;;;;6.53;3.70;;;-0.90;99.90;;;;;;5043832;28;20226;-61
2024/01/16 06:15:26;;;;;;;7.23;3.40;;;-0.80;99.90;;;;;;5047081;28;20216;-61
2024/01/16 06:17:54;;;;;;;5.33;3.50;;;-0.90;99.90;;;;;;5044826;28;20227;-61
2024/01/16 06:20:24;;;;;;;7.40;3.60;;;-0.90;99.90;;;;;;5044195;28;20240;-61
2024/01/16 06:22:52;;;;;;;5.73;3.50;;;-0.90;99.90;;;;;;5044219;28;20277;-62
2024/01/16 06:25:22;;;;;;;8.73;3.70;;;-0.90;99.90;;;;;;5044988;28;20590;-62
2024/01/16 06:27:50;;;;;;;9.77;4.13;;;-0.90;99.90;;;;;;5043998;28;20235;-62
2024/01/16 06:30:18;;;;;;;7.17;3.80;;;-0.90;99.90;;;;;;5043060;28;20711;-61
2024/01/16 06:32:48;;;;;;;11.93;3.70;;;-0.90;99.90;;;;;;5046125;28;20262;-62
2024/01/16 06:35:17;;;;;;;5.93;3.90;;;-0.90;99.90;;;;;;5044511;28;20192;-61
2024/01/16 06:37:45;;;;;;;7.07;3.73;;;-0.90;99.90;;;;;;5045521;28;20272;-61
2024/01/16 06:40:14;;;;;;;8.23;3.87;;;-0.80;99.90;;;;;;5042591;28;20213;-61
2024/01/16 06:42:43;;;;;;;12.17;4.37;;;-0.90;99.90;;;;;;5044488;28;21275;-62
2024/01/16 06:45:12;;;;;;;4.87;4.20;;;-0.90;99.90;;;;;;5043792;28;20645;-61
2024/01/16 06:47:41;;;;;;;10.80;4.10;;;-1.00;99.90;;;;;;5042331;28;20225;-62
2024/01/16 06:50:10;;;;;;;6.57;4.17;;;-1.00;99.90;;;;;;5044660;28;20201;-61
2024/01/16 06:52:38;;;;;;;7.70;4.07;;;-1.00;99.90;;;;;;5047396;28;20192;-62
2024/01/16 06:55:07;;;;;;;9.30;4.27;;;-1.10;99.90;;;;;;5042958;28;20215;-62
2024/01/16 06:57:36;;;;;;;13.83;4.60;;;-1.10;99.90;;;;;;5044266;28;20699;-62
2024/01/16 07:00:07;;;;;;;9.23;4.30;;;-1.10;99.90;;;;;;5042943;28;20224;-61
2024/01/16 07:02:36;;;;;;;7.33;3.90;;;-1.20;99.90;;;;;;5037150;28;20228;-61
2024/01/16 07:05:05;;;;;;;7.07;4.00;;;-1.20;99.90;;;;;;5038619;28;20236;-60
2024/01/16 07:07:33;;;;;;;6.47;4.30;;;-1.30;99.90;;;;;;5042423;28;20307;-61
2024/01/16 07:10:02;;;;;;;11.87;5.83;;;-1.30;99.90;;;;;;5040326;28;20228;-61
2024/01/16 07:12:30;;;;;;;11.27;4.80;;;-1.20;99.90;;;;;;5039807;28;20221;-61
2024/01/16 07:14:58;;;;;;;8.73;4.60;;;-1.20;99.90;;;;;;5038617;28;20238;-61
2024/01/16 07:17:28;;;;;;;10.23;4.57;;;-1.20;99.90;;;;;;5039881;28;20312;-61
2024/01/16 07:19:58;;;;;;;6.60;4.67;;;-1.20;99.90;;;;;;5041664;28;20197;-61
2024/01/16 07:22:27;;;;;;;14.20;4.73;;;-1.20;99.90;;;;;;5044093;28;20208;-61
2024/01/16 07:24:55;;;;;;;7.87;4.73;;;-1.20;99.90;;;;;;5044373;28;20230;-61
2024/01/16 07:27:23;;;;;;;11.17;5.23;;;-1.20;99.90;;;;;;5041035;28;20220;-61
2024/01/16 07:29:51;;;;;;;11.97;4.80;;;-1.20;99.90;;;;;;5038866;28;20710;-61
2024/01/16 07:32:20;;;;;;;7.13;4.97;;;-1.20;99.90;;;;;;5042498;28;20601;-61
2024/01/16 07:34:51;;;;;;;10.23;4.50;;;-1.20;99.90;;;;;;5044236;28;20682;-61
2024/01/16 07:37:19;;;;;;;13.23;5.10;;;-1.20;99.90;;;;;;5044393;28;20223;-61
2024/01/16 07:39:47;;;;;;;8.93;4.63;;;-1.20;99.90;;;;;;5042368;28;20571;-61
2024/01/16 07:42:16;;;;;;;8.87;4.90;;;-1.10;99.90;;;;;;5041163;28;20721;-61
2024/01/16 07:44:47;;;;;;;9.77;5.07;;;-1.10;99.90;;;;;;5042361;28;20812;-61
2024/01/16 07:47:15;;;;;;;7.60;5.00;;;-1.10;99.90;;;;;;5038840;28;20258;-61
2024/01/16 07:49:43;;;;;;;13.93;4.83;;;-1.10;99.90;;;;;;5042293;28;20203;-61
2024/01/16 07:52:13;;;;;;;11.63;5.03;;;-1.00;99.90;;;;;;5040139;28;20224;-61
2024/01/16 07:54:41;;;;;;;15.00;5.43;;;-1.00;99.90;;;;;;5043293;28;20228;-61
2024/01/16 07:57:10;;;;;;;10.47;5.00;;;-1.00;99.90;;;;;;5042829;28;20314;-61
2024/01/16 07:59:38;;;;;;;12.33;5.10;;;-1.00;99.90;;;;;;5045419;28;20225;-61
2024/01/16 08:02:09;;;;;;;17.40;5.67;;;-1.00;99.90;;;;;;5035644;28;20637;-60
2024/01/16 08:04:38;;;;;;;10.00;4.83;;;-0.90;99.90;;;;;;5040085;28;20216;-61
2024/01/16 08:07:09;;;;;;;7.73;5.50;;;-0.90;99.90;;;;;;5043646;28;20225;-61
2024/01/16 08:09:39;;;;;;;10.50;5.23;;;-0.90;99.90;;;;;;5041644;28;20279;-61
2024/01/16 08:12:08;;;;;;;10.63;5.40;;;-0.90;99.90;;;;;;5045270;28;20221;-60
2024/01/16 08:14:36;;;;;;;9.00;4.97;;;-0.80;99.90;;;;;;5044507;28;20212;-60
2024/01/16 08:17:04;;;;;;;6.37;4.57;;;-0.80;99.90;;;;;;5038594;28;20228;-60
2024/01/16 08:19:33;;;;;;;9.77;5.47;;;-0.70;99.90;;;;;;5044823;28;20188;-60
2024/01/16 08:22:02;;;;;;;10.07;4.60;;;-0.60;98.80;;;;;;5043849;28;20216;-60
2024/01/16 08:24:33;;;;;;;5.60;4.20;;;-0.60;96.70;;;;;;5042223;28;20289;-60
2024/01/16 08:27:02;;;;;;;7.20;4.90;;;-0.60;99.10;;;;;;5042183;28;20711;-60
2024/01/16 08:29:31;;;;;;;10.93;6.23;;;-0.50;97.90;;;;;;5044516;28;20764;-60
2024/01/16 08:31:59;;;;;;;7.53;5.07;;;-0.50;95.70;;;;;;5038063;28;20200;-60
2024/01/16 08:34:27;;;;;;;4.80;4.30;;;-0.50;94.30;;;;;;5041977;28;20236;-60
2024/01/16 08:36:56;;;;;;;8.80;4.40;;;-0.40;94.00;;;;;;5041945;28;20224;-60
2024/01/16 08:39:27;;;;;;;5.83;4.50;;;-0.40;90.50;;;;;;5042450;28;20749;-60
2024/01/16 08:41:57;;;;;;;8.60;5.03;;;-0.30;87.60;;;;;;5041158;28;20220;-61
2024/01/16 08:44:27;;;;;;;8.10;4.57;;;-0.30;81.10;;;;;;5040990;28;20220;-61
2024/01/16 08:46:55;;;;;;;9.50;5.03;;;-0.30;86.50;;;;;;5044097;28;20219;-61
2024/01/16 08:49:24;;;;;;;9.40;4.60;;;-0.30;89.20;;;;;;5040915;28;20323;-61
2024/01/16 08:51:52;;;;;;;8.30;4.80;;;-0.20;85.00;;;;;;5035558;28;20750;-61
2024/01/16 08:54:22;;;;;;;11.43;4.67;;;-0.10;72.40;;;;;;5041416;28;20933;-61
2024/01/16 08:56:50;;;;;;;9.53;4.50;;;-0.10;74.00;;;;;;5036365;28;20225;-61
2024/01/16 08:59:19;;;;;;;11.20;4.17;;;-0.10;83.60;;;;;;5040769;28;20188;-61
2024/01/16 09:01:49;;;;;;;6.57;4.77;;;-0.10;85.50;;;;;;5041579;28;20194;-61
2024/01/16 09:04:18;;;;;;;11.40;5.13;;;-0.10;85.20;;;;;;5037813;28;20240;-61
2024/01/16 09:06:46;;;;;;;11.13;4.60;;;-0.10;85.20;;;;;;5034021;28;20619;-61
2024/01/16 09:09:16;;;;;;;13.80;4.87;;;0.00;90.60;;;;;;5039875;28;22468;-61
2024/01/16 09:11:44;;;;;;;9.87;5.50;;;0.10;83.70;;;;;;5036772;28;20744;-61
2024/01/16 09:14:12;;;;;;;9.00;5.47;;;0.20;84.70;;;;;;5037165;28;20230;-61
2024/01/16 09:16:42;;;;;;;8.13;4.73;;;0.30;83.90;;;;;;5042178;28;20200;-61
2024/01/16 09:19:11;;;;;;;9.57;4.63;;;0.40;67.30;;;;;;5036801;28;20255;-61
2024/01/16 09:21:40;;;;;;;9.73;4.50;;;0.40;64.40;;;;;;5039958;28;20232;-61
2024/01/16 09:24:09;;;;;;;5.57;4.40;;;0.40;59.20;;;;;;5045940;28;20220;-61
2024/01/16 09:26:37;;;;;;;6.97;5.10;;;0.50;60.00;;;;;;5041284;28;20226;-61
2024/01/16 09:29:05;;;;;;;13.73;5.57;;;0.40;57.70;;;;;;5042853;28;20212;-62
2024/01/16 09:31:34;;;;;;;11.20;5.83;;;0.40;60.00;;;;;;5043447;28;20196;-61
2024/01/16 09:34:02;;;;;;;9.73;5.57;;;0.30;62.10;;;;;;5046504;28;20224;-61
2024/01/16 09:36:36;;;;;;;12.90;5.70;;;0.30;59.40;;;;;;5041585;28;20248;-61
2024/01/16 09:39:07;;;;;;;8.43;5.40;;;0.30;67.40;;;;;;5048544;28;20228;-61
2024/01/16 09:41:36;;;;;;;11.43;5.47;;;0.20;69.50;;;;;;5041778;28;20233;-61
2024/01/16 09:44:06;;;;;;;13.33;6.33;;;0.20;73.20;;;;;;5044345;28;20558;-61
2024/01/16 09:46:38;;;;;;;17.87;5.83;;;0.30;72.00;;;;;;5042578;28;20190;-60
2024/01/16 09:49:06;;;;;;;12.73;5.83;;;0.40;63.20;;;;;;5041617;28;20213;-61
2024/01/16 09:51:36;;;;;;;12.17;5.73;;;0.60;59.70;;;;;;5042764;28;20247;-60
2024/01/16 09:54:08;;;;;;;10.93;5.37;;;0.70;62.10;;;;;;5043991;28;20221;-60
2024/01/16 09:56:43;;;;;;;10.83;5.70;;;0.90;49.20;;;;;;5044295;28;20278;-61
2024/01/16 09:59:18;;;;;;;8.10;5.60;;;1.10;45.40;;;;;;5046651;28;20195;-61
2024/01/16 10:01:46;;;;;;;10.67;5.97;;;1.30;43.70;;;;;;5041269;28;20201;-61
2024/01/16 10:04:15;;;;;;;7.50;5.30;;;1.60;18.90;;;;;;5042231;28;20339;-61
2024/01/16 10:06:46;;;;;;;11.53;5.30;;;1.80;12.10;;;;;;5042075;28;20727;-61
2024/01/16 10:09:16;;;;;;;7.90;5.77;;;2.10;21.60;;;;;;5044375;28;20274;-61
2024/01/16 10:11:44;;;;;;;12.10;5.57;;;2.20;1.00;;;;;;5045872;28;20229;-60
2024/01/16 10:14:13;;;;;;;9.43;6.10;;;2.30;1.00;;;;;;5045595;28;20246;-60
2024/01/16 10:16:58;;;;;;;15.33;6.10;;;2.20;1.00;;;;;;5042813;28;20189;-61
2024/01/16 10:19:28;;;;;;;12.90;6.43;;;2.40;1.00;;;;;;5047245;28;20209;-61
2024/01/16 10:22:20;;;;;;;9.70;6.00;;;2.40;1.00;;;;;;5041114;28;20291;-60
2024/01/16 10:25:05;;;;;;;9.87;6.03;;;2.40;1.00;;;;;;5046458;28;20228;-60
2024/01/16 10:27:34;;;;;;;8.10;5.30;;;2.60;1.00;;;;;;5039916;28;20706;-60
2024/01/16 10:30:08;;;;;;;12.17;5.90;;;2.60;1.00;;;;;;5041534;28;20232;-60
2024/01/16 10:32:38;;;;;;;8.47;5.53;;;2.60;1.00;;;;;;5044460;28;21501;-60
2024/01/16 10:35:10;;;;;;;14.40;6.00;;;2.50;1.00;;;;;;5045677;28;20239;-60
2024/01/16 10:37:45;;;;;;;8.87;6.20;;;2.60;1.00;;;;;;5047152;28;20201;-60
2024/01/16 10:40:18;;;;;;;10.50;5.20;;;2.70;1.00;;;;;;5045027;28;20212;-60
2024/01/16 10:42:48;;;;;;;10.40;5.50;;;2.70;1.00;;;;;;5038659;28;20223;-60
2024/01/16 10:45:19;;;;;;;9.17;5.80;;;2.70;1.00;;;;;;5044220;28;20224;-61
2024/01/16 10:47:48;;;;;;;16.50;6.20;;;2.90;1.00;;;;;;5042058;28;20316;-60
2024/01/16 10:50:16;;;;;;;12.77;6.63;;;3.00;1.00;;;;;;5043892;28;20666;-60
2024/01/16 10:52:49;;;;;;;14.17;5.77;;;3.00;1.00;;;;;;5044248;28;20197;-60
2024/01/16 10:55:23;;;;;;;12.77;5.83;;;3.10;1.00;;;;;;5044668;28;20225;-60
2024/01/16 10:57:51;;;;;;;12.07;5.47;;;3.10;1.00;;;;;;5040710;28;20675;-60
2024/01/16 11:00:21;;;;;;;16.07;5.80;;;3.00;1.00;;;;;;5046143;28;20355;-60
2024/01/16 11:03:00;;;;;;;14.03;6.43;;;3.10;1.00;;;;;;5045163;28;20224;-60
2024/01/16 11:05:31;;;;;;;14.27;6.00;;;3.20;1.00;;;;;;5049300;28;20251;-60
2024/01/16 11:08:03;;;;;;;12.97;5.50;;;3.20;1.00;;;;;;5046013;28;20262;-61
2024/01/16 11:10:33;;;;;;;10.63;5.00;;;3.30;1.00;;;;;;5043277;28;20698;-60
2024/01/16 11:13:03;;;;;;;7.10;5.10;;;3.30;1.00;;;;;;5043120;28;20229;-61
2024/01/16 11:15:33;;;;;;;8.17;4.47;;;3.40;1.00;;;;;;5046282;28;20221;-60
2024/01/16 11:18:02;;;;;;;10.50;4.80;;;3.50;1.00;;;;;;5046977;28;20702;-63
2024/01/16 11:20:32;;;;;;;15.33;4.63;;;3.60;1.00;;;;;;5046321;28;20869;-61
2024/01/16 11:23:21;;;;;;;6.93;4.20;;;3.70;1.00;;;;;;5042324;28;20224;-60
2024/01/16 11:25:50;;;;;;;10.87;4.50;;;3.80;1.00;;;;;;5047703;28;20706;-61
2024/01/16 11:28:19;;;;;;;7.17;4.13;;;3.80;1.00;;;;;;5041442;28;20231;-61
2024/01/16 11:30:48;;;;;;;12.50;4.87;;;3.90;1.00;;;;;;5045692;28;20772;-61
2024/01/16 11:33:44;;;;;;;9.97;4.53;;;4.00;1.00;;;;;;5045143;28;20317;-61
2024/01/16 11:36:46;;;;;;;5.90;4.00;;;4.30;1.00;;;;;;5041925;28;20228;-61
2024/01/16 11:39:20;;;;;;;9.13;3.70;;;4.30;1.00;;;;;;5040965;28;20243;-61
2024/01/16 11:41:58;;;;;;;5.00;3.57;;;4.20;1.00;;;;;;5041337;28;20220;-61
2024/01/16 11:44:50;;;;;;;7.10;4.00;;;4.10;1.00;;;;;;5044204;28;20612;-61
2024/01/16 11:47:19;;;;;;;7.00;3.97;;;4.10;1.00;;;;;;5044610;28;20193;-61
2024/01/16 11:49:49;;;;;;;9.83;3.90;;;4.30;1.00;;;;;;5041775;28;20232;-61
2024/01/16 11:52:41;;;;;;;9.73;4.27;;;4.50;1.00;;;;;;5045535;28;20227;-61
2024/01/16 11:55:30;;;;;;;10.50;4.80;;;4.60;1.00;;;;;;5043068;28;20691;-61
2024/01/16 11:58:26;;;;;;;6.70;4.07;;;4.60;1.00;;;;;;5041763;28;20224;-62
2024/01/16 12:00:57;;;;;;;7.33;3.80;;;4.60;1.00;;;;;;5042613;28;20228;-61
2024/01/16 12:03:25;;;;;;;7.57;3.87;;;4.50;1.00;;;;;;5044559;28;20236;-62
2024/01/16 12:06:06;;;;;;;8.53;3.50;;;4.40;1.00;;;;;;5043822;28;20279;-62
2024/01/16 12:08:36;;;;;;;4.13;2.97;;;4.40;1.00;;;;;;5045130;28;20223;-62
2024/01/16 12:11:09;;;;;;;6.77;3.23;;;4.60;1.00;;;;;;5038173;28;20568;-61
2024/01/16 12:13:37;;;;;;;7.77;3.53;;;4.60;1.00;;;;;;5041313;28;20217;-62
2024/01/16 12:16:06;;;;;;;4.03;3.20;;;4.40;1.00;;;;;;5042063;28;20707;-62
2024/01/16 12:18:35;;;;;;;6.53;3.10;;;4.30;1.00;;;;;;5048999;28;20564;-61
2024/01/16 12:21:12;;;;;;;5.67;3.10;;;4.40;1.00;;;;;;5042033;28;20627;-61
2024/01/16 12:23:41;;;;;;;8.17;3.47;;;4.40;1.00;;;;;;5040545;28;20379;-61
2024/01/16 12:26:24;;;;;;;5.63;3.83;;;4.50;1.00;;;;;;5045197;28;20220;-61
2024/01/16 12:28:53;;;;;;;3.93;2.90;;;4.60;1.00;;;;;;5042612;28;20300;-61
2024/01/16 12:31:28;;;;;;;5.07;3.07;;;4.60;1.00;;;;;;5040341;28;20239;-61
2024/01/16 12:34:07;;;;;;;4.93;3.10;;;4.60;99.90;;;;;;5041621;28;20225;-61
2024/01/16 12:36:37;;;;;;;2.93;2.57;;;4.50;99.90;;;;;;5041840;28;20791;-61
2024/01/16 12:39:06;;;;;;;6.37;2.80;;;4.50;99.90;;;;;;5039346;28;20275;-61
2024/01/16 12:41:40;;;;;;;8.23;3.10;;;4.50;99.90;;;;;;5039509;28;20265;-61
2024/01/16 12:44:10;;;;;;;2.83;2.60;;;4.50;99.90;;;;;;5042111;28;20192;-61
2024/01/16 12:46:45;;;;;;;2.80;2.60;;;4.60;99.90;;;;;;5038887;28;20211;-61
2024/01/16 12:49:17;;;;;;;2.70;2.50;;;4.60;99.90;;;;;;5040977;28;20213;-61
2024/01/16 12:51:46;;;;;;;7.87;2.80;;;4.70;99.90;;;;;;5040151;28;20226;-61
2024/01/16 12:54:15;;;;;;;3.20;2.67;;;4.70;99.90;;;;;;5043090;28;20698;-61
2024/01/16 12:56:45;;;;;;;6.07;2.63;;;4.80;99.90;;;;;;5043375;28;20239;-61
2024/01/16 12:59:15;;;;;;;4.13;2.80;;;4.90;99.90;;;;;;5044709;28;20177;-61
2024/01/16 13:01:45;;;;;;;4.83;3.10;;;4.90;99.90;;;;;;5048173;28;20810;-61